Phoenix Sky Harbor International Airport Phoenix US
ICAO: KPHX
IATA: PHX
Category: Large
Scheduled Services: Yes

Elevation: 1135 ft
TransAlt. 18000 ft.

Airport Communications:
APP/DEP:124.1
ATIS:127.575
CLNC DEL:118.1
GND:119.75
ANG COMD POST:140
PRESCOTT RDO:122.2
TWR:118.7
UNICOM:122.95

KPHX Zoom In..

Runways:

(A) RW 07L length 10300 ft width 150 ft
ILS 111.50 / hdg 78

(B) RW 07R length 7800 ft width 150 ft
ILS 110.75 / hdg 78

(C) RW 08 length 11489 ft width 150 ft
ILS 111.75 / hdg 78

(D) RW 25L length 7800 ft width 150 ft
ILS 110.75 / hdg 258

(E) RW 25R length 10300 ft width 150 ft
---- / hdg 258

(F) RW 26 length 11489 ft width 150 ft
ILS 111.75 / hdg 258

Location; KPHX
Day. 14 / Time. 00.51 Zulu
* Altimeter: 29.70
* Temperature: 44° c. 111.2°f.
* Wind from: 260° Speed 09 kn.
Dewpoint: 11° c.
Visibility: 10 Statute Miles.
Clouds: Few 9000 ft.
Clouds: Few 12000 ft.
Clouds: Scattered 2000 ft.
Clouds: Broken 25000 ft.
Conditions: Cumulonimbus.Conditions: Rain Showers.

KPHX 140051Z 26009KT 10SM FEW090 FEW120 SCT200 BKN250 44/11 A2970 RMK AO2 SLP032 CB DSNT SE-S AND W SHRA DSNT W T04440111

Going to: --> -->


Wind From 260°
Speed 09 kn.

 
 
jpsmedia worldairports.se 2020   terms of use